createdAt,value
2018-11-25T00:02:15.950Z,63.97
2018-11-25T00:04:44.216Z,62.73
2018-11-25T00:07:12.369Z,62.33
2018-11-25T00:09:40.541Z,61.03
2018-11-25T00:12:08.724Z,63.37
2018-11-25T00:14:36.909Z,61.93
2018-11-25T00:17:05.320Z,61.03
2018-11-25T00:19:33.497Z,65.27
2018-11-25T00:22:01.645Z,66.43
2018-11-25T00:24:29.809Z,65.13
2018-11-25T00:26:57.966Z,70.27
2018-11-25T00:29:26.104Z,64.17
2018-11-25T00:31:54.268Z,61.20
2018-11-25T00:34:22.452Z,69.53
2018-11-25T00:36:50.643Z,67.43
2018-11-25T00:39:18.823Z,66.67
2018-11-25T00:41:46.955Z,69.03
2018-11-25T00:44:15.113Z,66.60
2018-11-25T00:46:43.826Z,71.03
2018-11-25T00:49:11.965Z,69.73
2018-11-25T00:51:40.120Z,73.13
2018-11-25T00:54:08.265Z,71.17
2018-11-25T00:56:36.417Z,71.47
2018-11-25T00:59:04.861Z,71.47
2018-11-25T01:01:33.016Z,72.53
2018-11-25T01:04:01.149Z,70.57
2018-11-25T01:06:29.314Z,70.77
2018-11-25T01:08:57.509Z,76.80
2018-11-25T01:11:25.674Z,70.90
2018-11-25T01:13:54.621Z,74.60
2018-11-25T01:16:22.764Z,70.13
2018-11-25T01:18:50.911Z,73.30
2018-11-25T01:21:19.096Z,65.70
2018-11-25T01:23:47.225Z,75.13
2018-11-25T01:26:15.391Z,69.57
2018-11-25T01:28:43.705Z,70.67
2018-11-25T01:31:11.845Z,68.77
2018-11-25T01:33:40.001Z,68.17
2018-11-25T01:36:08.145Z,67.87
2018-11-25T01:38:36.311Z,70.63
2018-11-25T01:41:04.469Z,67.00
2018-11-25T01:43:32.640Z,61.33
2018-11-25T01:46:00.780Z,58.97
2018-11-25T01:48:28.912Z,66.00
2018-11-25T01:50:57.044Z,64.13
2018-11-25T01:53:25.194Z,62.40
2018-11-25T01:55:53.800Z,62.87
2018-11-25T01:58:21.974Z,63.37
2018-11-25T02:00:50.128Z,60.63
2018-11-25T02:03:18.260Z,58.30
2018-11-25T02:05:46.405Z,55.80
2018-11-25T02:08:14.553Z,58.50
2018-11-25T02:10:42.692Z,60.43
2018-11-25T02:13:10.825Z,59.57
2018-11-25T02:15:39.037Z,59.40
2018-11-25T02:18:07.212Z,55.33
2018-11-25T02:20:35.362Z,58.77
2018-11-25T02:23:03.493Z,60.80
2018-11-25T02:25:31.650Z,57.17
2018-11-25T02:27:59.773Z,57.07
2018-11-25T02:30:28.817Z,59.03
2018-11-25T02:32:56.969Z,55.47
2018-11-25T02:35:25.118Z,53.07
2018-11-25T02:37:53.272Z,57.17
2018-11-25T02:40:21.410Z,52.50
2018-11-25T02:42:49.576Z,57.30
2018-11-25T02:45:18.208Z,54.50
2018-11-25T02:47:46.419Z,55.47
2018-11-25T02:50:23.668Z,51.20
2018-11-25T02:52:51.856Z,47.73
2018-11-25T02:55:21.705Z,51.13
2018-11-25T02:57:49.828Z,48.90
2018-11-25T03:00:18.017Z,49.40
2018-11-25T03:02:46.156Z,52.00
2018-11-25T03:05:14.321Z,49.53
2018-11-25T03:07:42.444Z,50.37
2018-11-25T03:10:10.622Z,50.10
2018-11-25T03:12:38.736Z,49.93
2018-11-25T03:15:08.018Z,46.53
2018-11-25T03:17:36.181Z,50.20
2018-11-25T03:20:05.239Z,50.27
2018-11-25T03:22:33.384Z,47.40
2018-11-25T03:25:02.075Z,46.13
2018-11-25T03:27:30.232Z,46.97
2018-11-25T03:29:59.072Z,42.67
2018-11-25T03:32:27.221Z,46.50
2018-11-25T03:34:55.417Z,42.87
2018-11-25T03:37:23.566Z,39.33
2018-11-25T03:39:51.697Z,46.27
2018-11-25T03:42:19.840Z,41.20
2018-11-25T03:44:47.984Z,37.20
2018-11-25T03:47:16.123Z,37.53
2018-11-25T03:49:44.301Z,38.37
2018-11-25T03:52:12.446Z,38.67
2018-11-25T03:54:40.590Z,39.63
2018-11-25T03:57:08.719Z,39.63
2018-11-25T03:59:36.880Z,38.40
2018-11-25T04:02:05.076Z,40.27
2018-11-25T04:04:33.201Z,35.90
2018-11-25T04:07:01.346Z,38.00
2018-11-25T04:09:30.446Z,40.10
2018-11-25T04:11:58.593Z,39.77
2018-11-25T04:14:26.738Z,36.43
2018-11-25T04:16:54.936Z,44.90
2018-11-25T04:19:23.041Z,36.57
2018-11-25T04:21:51.170Z,38.93
2018-11-25T04:24:19.300Z,37.40
2018-11-25T04:26:47.458Z,35.83
2018-11-25T04:29:15.580Z,38.80
2018-11-25T04:31:43.717Z,35.37
2018-11-25T04:34:11.881Z,38.90
2018-11-25T04:36:40.017Z,37.07
2018-11-25T04:39:08.696Z,36.57
2018-11-25T04:41:36.956Z,36.90
2018-11-25T04:44:05.125Z,35.93
2018-11-25T04:46:33.252Z,33.83
2018-11-25T04:49:01.423Z,36.30
2018-11-25T04:51:29.601Z,33.37
2018-11-25T04:53:57.961Z,34.80
2018-11-25T04:56:26.100Z,34.07
2018-11-25T04:58:54.249Z,36.97
2018-11-25T05:01:22.904Z,32.23
2018-11-25T05:03:51.036Z,33.97
2018-11-25T05:06:20.677Z,35.97
2018-11-25T05:08:48.811Z,34.57
2018-11-25T05:11:16.953Z,36.13
2018-11-25T05:13:45.188Z,33.50
2018-11-25T05:16:13.325Z,35.57
2018-11-25T05:18:41.559Z,34.87
2018-11-25T05:21:09.701Z,32.97
2018-11-25T05:23:37.885Z,37.13
2018-11-25T05:26:06.062Z,30.53
2018-11-25T05:28:34.201Z,31.40
2018-11-25T05:31:02.364Z,35.67
2018-11-25T05:33:30.521Z,33.00
2018-11-25T05:35:58.653Z,34.10
2018-11-25T05:38:26.797Z,32.10
2018-11-25T05:40:54.934Z,33.00
2018-11-25T05:43:23.057Z,34.70
2018-11-25T05:45:51.274Z,29.73
2018-11-25T05:48:19.418Z,33.67
2018-11-25T05:50:47.564Z,30.07
2018-11-25T05:53:15.888Z,31.80
2018-11-25T05:55:44.156Z,32.30
2018-11-25T05:58:12.350Z,30.60
2018-11-25T06:00:40.496Z,32.47
2018-11-25T06:03:09.113Z,31.90
2018-11-25T06:05:37.248Z,31.80
2018-11-25T06:08:05.424Z,31.87
2018-11-25T06:10:33.561Z,33.20
2018-11-25T06:13:01.757Z,30.53
2018-11-25T06:15:29.878Z,32.73
2018-11-25T06:17:58.008Z,34.80
2018-11-25T06:20:26.161Z,35.77
2018-11-25T06:22:54.280Z,37.13
2018-11-25T06:25:22.546Z,34.53
2018-11-25T06:27:50.676Z,31.07
2018-11-25T06:30:19.257Z,29.23
2018-11-25T06:32:47.427Z,30.40
2018-11-25T06:35:16.612Z,31.33
2018-11-25T06:37:44.785Z,28.90
2018-11-25T06:40:14.505Z,32.33
2018-11-25T06:42:42.662Z,31.17
2018-11-25T06:45:13.686Z,33.13
2018-11-25T06:47:41.829Z,30.33
2018-11-25T06:50:10.630Z,29.13
2018-11-25T06:52:38.759Z,26.70
2018-11-25T06:55:07.675Z,28.33
2018-11-25T06:57:35.866Z,31.27
2018-11-25T07:00:06.177Z,27.27
2018-11-25T07:02:34.328Z,28.10
2018-11-25T07:05:02.482Z,26.73
2018-11-25T07:07:30.754Z,25.80
2018-11-25T07:09:58.882Z,25.27
2018-11-25T07:12:27.020Z,26.20
2018-11-25T07:14:55.173Z,26.87
2018-11-25T07:17:23.338Z,26.23
2018-11-25T07:19:51.502Z,27.80
2018-11-25T07:22:19.632Z,23.70
2018-11-25T07:24:47.785Z,24.73
2018-11-25T07:27:16.151Z,27.00
2018-11-25T07:29:44.287Z,24.70
2018-11-25T07:32:12.441Z,30.87
2018-11-25T07:34:40.577Z,24.30
2018-11-25T07:37:08.954Z,25.13
2018-11-25T07:39:37.082Z,25.43
2018-11-25T07:42:05.358Z,29.20
2018-11-25T07:44:33.501Z,25.13
2018-11-25T07:47:01.666Z,25.57
2018-11-25T07:49:29.944Z,25.23
2018-11-25T07:51:58.118Z,25.40
2018-11-25T07:54:26.413Z,24.90
2018-11-25T07:56:54.577Z,23.30
2018-11-25T07:59:22.813Z,23.90
2018-11-25T08:01:50.969Z,23.53
2018-11-25T08:04:19.113Z,23.40
2018-11-25T08:06:47.259Z,24.67
2018-11-25T08:09:15.410Z,24.33
2018-11-25T08:11:43.772Z,25.00
2018-11-25T08:14:11.925Z,26.33
2018-11-25T08:16:40.776Z,27.17
2018-11-25T08:19:09.534Z,24.83
2018-11-25T08:21:37.681Z,22.57
2018-11-25T08:24:06.041Z,24.27
2018-11-25T08:26:34.198Z,25.47
2018-11-25T08:29:02.332Z,25.23
2018-11-25T08:31:30.483Z,38.63
2018-11-25T08:33:58.613Z,27.00
2018-11-25T08:36:26.787Z,31.00
2018-11-25T08:38:54.929Z,36.30
2018-11-25T08:41:23.065Z,26.33
2018-11-25T08:43:51.308Z,25.70
2018-11-25T08:46:19.453Z,27.00
2018-11-25T08:48:47.658Z,26.77
2018-11-25T08:51:15.797Z,27.60
2018-11-25T08:53:43.943Z,25.07
2018-11-25T08:56:12.090Z,28.97
2018-11-25T08:58:40.242Z,28.97
2018-11-25T09:01:08.879Z,28.77
2018-11-25T09:03:37.044Z,28.93
2018-11-25T09:06:05.223Z,29.30
2018-11-25T09:08:33.376Z,28.20
2018-11-25T09:11:01.557Z,30.90
2018-11-25T09:13:29.756Z,27.13
2018-11-25T09:15:57.934Z,29.27
2018-11-25T09:18:26.322Z,30.00
2018-11-25T09:20:54.425Z,32.07
2018-11-25T09:23:22.571Z,30.03
2018-11-25T09:25:50.763Z,28.50
2018-11-25T09:28:18.990Z,30.47
2018-11-25T09:30:47.138Z,29.83
2018-11-25T09:33:16.046Z,30.23
2018-11-25T09:35:45.213Z,32.50
2018-11-25T09:38:13.377Z,30.10
2018-11-25T09:40:41.530Z,30.73
2018-11-25T09:43:09.772Z,35.17
2018-11-25T09:45:37.944Z,29.33
2018-11-25T09:48:06.124Z,31.67
2018-11-25T09:50:34.291Z,30.83
2018-11-25T09:53:02.442Z,30.43
2018-11-25T09:55:30.585Z,33.43
2018-11-25T09:57:59.365Z,33.33
2018-11-25T10:00:29.219Z,36.20
2018-11-25T10:02:57.368Z,34.23
2018-11-25T10:05:25.529Z,35.77
2018-11-25T10:07:53.676Z,32.90
2018-11-25T10:10:22.304Z,33.33
2018-11-25T10:12:50.570Z,32.23
2018-11-25T10:15:22.304Z,35.97
2018-11-25T10:17:50.447Z,35.60
2018-11-25T10:20:21.148Z,39.80
2018-11-25T10:22:49.329Z,41.27
2018-11-25T10:25:17.593Z,35.90
2018-11-25T10:27:45.944Z,37.77
2018-11-25T10:30:15.109Z,38.57
2018-11-25T10:32:43.557Z,34.63
2018-11-25T10:35:11.721Z,38.00
2018-11-25T10:40:09.626Z,41.47
2018-11-25T10:42:37.781Z,38.73
2018-11-25T10:45:07.801Z,38.87
2018-11-25T10:47:35.952Z,36.23
2018-11-25T10:50:04.851Z,36.63
2018-11-25T10:52:32.993Z,36.23
2018-11-25T10:55:01.150Z,38.63
2018-11-25T10:57:29.301Z,39.50
2018-11-25T10:59:57.514Z,37.20
2018-11-25T11:05:06.195Z,36.97
2018-11-25T11:07:40.170Z,38.50
2018-11-25T11:10:08.916Z,35.93
2018-11-25T11:12:37.077Z,40.17
2018-11-25T11:15:06.814Z,40.83
2018-11-25T11:17:34.956Z,40.57
2018-11-25T11:20:03.557Z,39.77
2018-11-25T11:22:31.737Z,43.90
2018-11-25T11:24:59.897Z,43.10
2018-11-25T11:27:28.053Z,42.03
2018-11-25T11:29:56.245Z,45.97
2018-11-25T11:32:24.425Z,46.13
2018-11-25T11:34:52.650Z,42.47
2018-11-25T11:37:20.829Z,48.70
2018-11-25T11:39:49.033Z,47.97
2018-11-25T11:42:17.312Z,46.13
2018-11-25T11:44:45.485Z,46.00
2018-11-25T11:47:13.683Z,50.07
2018-11-25T11:49:41.856Z,49.23
2018-11-25T11:52:10.062Z,49.00
2018-11-25T11:54:38.341Z,47.80
2018-11-25T11:57:06.520Z,48.10
2018-11-25T11:59:34.720Z,47.93
2018-11-25T12:02:02.902Z,51.33
2018-11-25T12:04:31.069Z,49.77
2018-11-25T12:06:59.241Z,51.50
2018-11-25T12:09:27.398Z,50.40
2018-11-25T12:11:55.581Z,52.30
2018-11-25T12:14:23.742Z,49.23
2018-11-25T12:16:51.920Z,51.27
2018-11-25T12:19:20.367Z,65.93
2018-11-25T12:21:48.815Z,56.90
2018-11-25T12:24:17.993Z,52.30
2018-11-25T12:26:46.451Z,52.60
2018-11-25T12:29:14.855Z,54.87
2018-11-25T12:31:44.079Z,55.10
2018-11-25T12:34:12.510Z,53.00
2018-11-25T12:36:40.949Z,52.07
2018-11-25T12:39:09.397Z,54.07
2018-11-25T12:41:37.790Z,52.23
2018-11-25T12:44:06.250Z,50.37
2018-11-25T12:46:34.672Z,50.57
2018-11-25T12:49:03.145Z,51.03
2018-11-25T12:51:31.583Z,48.60
2018-11-25T12:54:00.044Z,54.47
2018-11-25T12:56:28.447Z,53.13
2018-11-25T12:58:56.905Z,56.80
2018-11-25T13:01:25.325Z,48.60
2018-11-25T13:03:53.843Z,53.93
2018-11-25T13:06:22.278Z,56.50
2018-11-25T13:08:51.429Z,57.43
2018-11-25T13:11:19.859Z,56.10
2018-11-25T13:13:48.270Z,59.67
2018-11-25T13:16:16.715Z,58.13
2018-11-25T13:18:45.735Z,55.90
2018-11-25T13:21:14.247Z,52.03
2018-11-25T13:23:43.241Z,61.23
2018-11-25T13:26:11.164Z,61.50
2018-11-25T13:28:39.607Z,61.90
2018-11-25T13:31:08.167Z,60.67
2018-11-25T13:33:36.627Z,59.53
2018-11-25T13:36:06.986Z,56.73
2018-11-25T13:38:35.391Z,57.80
2018-11-25T13:41:03.845Z,61.70
2018-11-25T13:43:32.267Z,56.27
2018-11-25T13:46:00.691Z,61.90
2018-11-25T13:48:29.144Z,61.30
2018-11-25T13:51:05.841Z,60.23
2018-11-25T13:53:34.572Z,66.13
2018-11-25T13:56:03.254Z,72.03
2018-11-25T13:58:31.691Z,61.73
2018-11-25T14:01:00.268Z,67.20
2018-11-25T14:03:33.524Z,64.17
2018-11-25T14:06:02.051Z,73.73
